BAW907 EDDF-EGLL
Flight info
| Callsign | BAW907 |
|---|---|
| Flight time | 1h 10m |
| Altitude | 36000 |
| Route | OBOKA3W/25C OBOKA Z29 TORNU DCT ABNED L980 LOGAN LOGAN2H |
| Aircraft | A319/M-SDE3FGIJ1KRWXY/LB1 |
Departure
| Time | 2026-05-06 16:17 |
|---|---|
| Airport | Frankfurt Main Airport (EDDF) |
Arrival
| Time | 2026-05-06 17:27 |
|---|---|
| Airport | London Heathrow Airport (EGLL) |
| Time | Latitude | Longitude | Altitude | Speed | Heading |
|---|---|---|---|---|---|
| 2026-05-06 15:33 | 50.04856 | 8.58898 | 365 ft | 0 kts | 340° |
| 2026-05-06 16:07 | 50.04845 | 8.58904 | 365 ft | 4 kts | 340° |
| 2026-05-06 16:08 | 50.04820 | 8.58918 | 368 ft | 4 kts | 340° |
| 2026-05-06 16:08 | 50.04800 | 8.58929 | 371 ft | 0 kts | 340° |
| 2026-05-06 16:12 | 50.04807 | 8.58922 | 369 ft | 4 kts | 319° |
| 2026-05-06 16:12 | 50.04789 | 8.58882 | 367 ft | 7 kts | 202° |
| 2026-05-06 16:12 | 50.04747 | 8.58847 | 370 ft | 7 kts | 223° |
| 2026-05-06 16:13 | 50.04721 | 8.58775 | 371 ft | 9 kts | 219° |
| 2026-05-06 16:13 | 50.04665 | 8.58762 | 370 ft | 8 kts | 186° |
| 2026-05-06 16:13 | 50.04633 | 8.58755 | 370 ft | 0 kts | 188° |
| 2026-05-06 16:14 | 50.04632 | 8.58755 | 370 ft | 1 kts | 188° |
| 2026-05-06 16:14 | 50.04608 | 8.58743 | 371 ft | 6 kts | 206° |
| 2026-05-06 16:15 | 50.04557 | 8.58680 | 371 ft | 13 kts | 218° |
| 2026-05-06 16:15 | 50.04487 | 8.58589 | 370 ft | 10 kts | 247° |
| 2026-05-06 16:15 | 50.04486 | 8.58583 | 370 ft | 0 kts | 249° |
| 2026-05-06 16:16 | 50.04478 | 8.58552 | 372 ft | 17 kts | 249° |
| 2026-05-06 16:16 | 50.04366 | 8.58079 | 369 ft | 76 kts | 250° |
| 2026-05-06 16:16 | 50.04111 | 8.57010 | 363 ft | 131 kts | 249° |
| 2026-05-06 16:17 | 50.03754 | 8.55509 | 634 ft | 152 kts | 251° |
| 2026-05-06 16:17 | 50.03395 | 8.54022 | 1328 ft | 149 kts | 251° |
| 2026-05-06 16:17 | 50.03021 | 8.52463 | 1786 ft | 163 kts | 251° |
| 2026-05-06 16:17 | 50.02583 | 8.50715 | 2101 ft | 186 kts | 244° |
| 2026-05-06 16:18 | 50.01721 | 8.49091 | 2607 ft | 202 kts | 221° |
| 2026-05-06 16:18 | 50.00441 | 8.48106 | 3364 ft | 213 kts | 196° |
| 2026-05-06 16:18 | 49.98964 | 8.47749 | 4286 ft | 215 kts | 191° |
| 2026-05-06 16:18 | 49.97476 | 8.47420 | 5184 ft | 217 kts | 191° |
| 2026-05-06 16:19 | 49.95990 | 8.47041 | 6065 ft | 218 kts | 198° |
| 2026-05-06 16:19 | 49.94482 | 8.46341 | 6616 ft | 236 kts | 199° |
| 2026-05-06 16:19 | 49.92892 | 8.45544 | 7363 ft | 243 kts | 205° |
| 2026-05-06 16:19 | 49.91456 | 8.44147 | 8227 ft | 246 kts | 223° |
| 2026-05-06 16:20 | 49.90347 | 8.42110 | 9095 ft | 250 kts | 238° |
| 2026-05-06 16:20 | 49.89458 | 8.39811 | 9964 ft | 254 kts | 240° |
| 2026-05-06 16:20 | 49.88776 | 8.37233 | 10811 ft | 259 kts | 256° |
| 2026-05-06 16:20 | 49.88617 | 8.34411 | 11463 ft | 274 kts | 271° |
| 2026-05-06 16:21 | 49.88770 | 8.31377 | 11798 ft | 298 kts | 274° |
| 2026-05-06 16:21 | 49.89113 | 8.28079 | 12061 ft | 323 kts | 284° |
| 2026-05-06 16:21 | 49.90009 | 8.24772 | 12480 ft | 341 kts | 298° |
| 2026-05-06 16:21 | 49.91386 | 8.21725 | 13158 ft | 348 kts | 305° |
| 2026-05-06 16:22 | 49.92836 | 8.18704 | 13869 ft | 351 kts | 305° |
| 2026-05-06 16:22 | 49.94384 | 8.15747 | 14515 ft | 355 kts | 312° |
| 2026-05-06 16:22 | 49.96232 | 8.13160 | 15163 ft | 360 kts | 317° |
| 2026-05-06 16:22 | 49.98146 | 8.10601 | 15783 ft | 364 kts | 317° |
| 2026-05-06 16:23 | 50.00081 | 8.08017 | 16389 ft | 368 kts | 317° |
| 2026-05-06 16:23 | 50.02033 | 8.05409 | 16994 ft | 373 kts | 317° |
| 2026-05-06 16:23 | 50.04015 | 8.02759 | 17616 ft | 377 kts | 317° |
| 2026-05-06 16:23 | 50.06013 | 8.00083 | 18208 ft | 381 kts | 317° |
| 2026-05-06 16:24 | 50.08010 | 7.97403 | 18751 ft | 385 kts | 317° |
| 2026-05-06 16:24 | 50.10072 | 7.94634 | 19340 ft | 388 kts | 317° |
| 2026-05-06 16:24 | 50.12120 | 7.91879 | 19919 ft | 391 kts | 317° |
| 2026-05-06 16:24 | 50.14185 | 7.89099 | 20488 ft | 394 kts | 317° |
| 2026-05-06 16:25 | 50.16238 | 7.86328 | 21054 ft | 396 kts | 317° |
| 2026-05-06 16:25 | 50.18347 | 7.83475 | 21698 ft | 397 kts | 316° |
| 2026-05-06 16:25 | 50.20412 | 7.80670 | 22285 ft | 398 kts | 316° |
| 2026-05-06 16:25 | 50.22508 | 7.77826 | 22890 ft | 399 kts | 316° |
| 2026-05-06 16:26 | 50.24652 | 7.75041 | 23423 ft | 403 kts | 321° |
| 2026-05-06 16:26 | 50.27057 | 7.72742 | 23858 ft | 409 kts | 330° |
| 2026-05-06 16:26 | 50.29678 | 7.70918 | 24265 ft | 414 kts | 334° |
| 2026-05-06 16:26 | 50.32327 | 7.69116 | 24676 ft | 417 kts | 334° |
| 2026-05-06 16:27 | 50.34993 | 7.67298 | 25095 ft | 420 kts | 334° |
| 2026-05-06 16:27 | 50.37689 | 7.65455 | 25493 ft | 424 kts | 333° |
| 2026-05-06 16:27 | 50.40396 | 7.63595 | 25882 ft | 427 kts | 333° |
| 2026-05-06 16:27 | 50.43129 | 7.61711 | 26299 ft | 430 kts | 333° |
| 2026-05-06 16:28 | 50.45870 | 7.59820 | 26705 ft | 433 kts | 333° |
| 2026-05-06 16:28 | 50.48637 | 7.57911 | 27107 ft | 436 kts | 333° |
| 2026-05-06 16:28 | 50.51419 | 7.55987 | 27493 ft | 439 kts | 333° |
| 2026-05-06 16:28 | 50.54226 | 7.54045 | 27896 ft | 441 kts | 333° |
| 2026-05-06 16:29 | 50.56939 | 7.51802 | 28282 ft | 441 kts | 324° |
| 2026-05-06 16:29 | 50.59515 | 7.49170 | 28655 ft | 443 kts | 323° |
| 2026-05-06 16:29 | 50.62112 | 7.46506 | 29047 ft | 446 kts | 323° |
| 2026-05-06 16:29 | 50.64726 | 7.43829 | 29447 ft | 448 kts | 325° |
| 2026-05-06 16:30 | 50.67345 | 7.41147 | 29843 ft | 450 kts | 326° |
| 2026-05-06 16:30 | 50.69092 | 7.39356 | 30076 ft | 451 kts | 326° |
| 2026-05-06 16:30 | 50.72462 | 7.35392 | 30470 ft | 453 kts | 316° |
| 2026-05-06 16:30 | 50.74628 | 7.31787 | 30772 ft | 453 kts | 307° |
| 2026-05-06 16:31 | 50.76415 | 7.27757 | 31084 ft | 453 kts | 299° |
| 2026-05-06 16:31 | 50.77879 | 7.23381 | 31499 ft | 451 kts | 295° |
| 2026-05-06 16:31 | 50.79310 | 7.18966 | 31919 ft | 450 kts | 295° |
| 2026-05-06 16:31 | 50.80740 | 7.14574 | 32343 ft | 449 kts | 295° |
| 2026-05-06 16:32 | 50.82174 | 7.10179 | 32763 ft | 448 kts | 295° |
| 2026-05-06 16:32 | 50.83599 | 7.05805 | 33189 ft | 447 kts | 295° |
| 2026-05-06 16:32 | 50.85014 | 7.01443 | 33615 ft | 446 kts | 295° |
| 2026-05-06 16:32 | 50.86425 | 6.97078 | 34007 ft | 445 kts | 295° |
| 2026-05-06 16:33 | 50.87832 | 6.92714 | 34342 ft | 445 kts | 295° |
| 2026-05-06 16:33 | 50.89239 | 6.88345 | 34656 ft | 445 kts | 294° |
| 2026-05-06 16:33 | 50.90641 | 6.83981 | 34985 ft | 445 kts | 294° |
| 2026-05-06 16:34 | 50.93442 | 6.75239 | 35583 ft | 445 kts | 294° |
| 2026-05-06 16:34 | 50.94838 | 6.70869 | 35814 ft | 445 kts | 294° |
| 2026-05-06 16:34 | 50.96240 | 6.66476 | 35865 ft | 444 kts | 294° |
| 2026-05-06 16:35 | 50.99016 | 6.57737 | 35860 ft | 443 kts | 294° |
| 2026-05-06 16:35 | 51.01765 | 6.49045 | 35883 ft | 443 kts | 294° |
| 2026-05-06 16:36 | 51.04534 | 6.40288 | 35877 ft | 443 kts | 294° |
| 2026-05-06 16:36 | 51.07294 | 6.31515 | 35884 ft | 443 kts | 294° |
| 2026-05-06 16:37 | 51.10053 | 6.22714 | 35884 ft | 443 kts | 294° |
| 2026-05-06 16:37 | 51.12794 | 6.13922 | 35885 ft | 443 kts | 294° |
| 2026-05-06 16:38 | 51.14870 | 6.04756 | 35877 ft | 440 kts | 282° |
| 2026-05-06 16:38 | 51.16397 | 5.95315 | 35864 ft | 440 kts | 282° |
| 2026-05-06 16:39 | 51.17927 | 5.85856 | 35875 ft | 441 kts | 282° |
| 2026-05-06 16:39 | 51.20104 | 5.76675 | 35886 ft | 443 kts | 291° |
| 2026-05-06 16:40 | 51.22494 | 5.67660 | 35897 ft | 443 kts | 291° |
| 2026-05-06 16:40 | 51.24878 | 5.58596 | 35899 ft | 443 kts | 290° |
| 2026-05-06 16:41 | 51.27255 | 5.49512 | 35897 ft | 443 kts | 290° |
| 2026-05-06 16:41 | 51.29621 | 5.40431 | 35898 ft | 443 kts | 290° |
| 2026-05-06 16:42 | 51.31980 | 5.31333 | 35899 ft | 443 kts | 290° |
| 2026-05-06 16:42 | 51.33939 | 5.23771 | 35904 ft | 443 kts | 290° |
| 2026-05-06 16:43 | 51.36284 | 5.14655 | 35904 ft | 442 kts | 290° |
| 2026-05-06 16:43 | 51.38620 | 5.05546 | 35920 ft | 442 kts | 290° |
| 2026-05-06 16:44 | 51.40952 | 4.96430 | 35923 ft | 442 kts | 290° |
| 2026-05-06 16:44 | 51.43281 | 4.87300 | 35924 ft | 442 kts | 290° |
| 2026-05-06 16:45 | 51.45994 | 4.76633 | 35929 ft | 442 kts | 290° |
| 2026-05-06 16:45 | 51.47912 | 4.69046 | 35927 ft | 441 kts | 290° |
| 2026-05-06 16:46 | 51.50207 | 4.59933 | 35914 ft | 440 kts | 290° |
| 2026-05-06 16:46 | 51.52489 | 4.50839 | 35911 ft | 439 kts | 290° |
| 2026-05-06 16:47 | 51.54759 | 4.41739 | 35906 ft | 439 kts | 290° |
| 2026-05-06 16:47 | 51.57023 | 4.32647 | 35903 ft | 438 kts | 290° |
| 2026-05-06 16:48 | 51.59279 | 4.23539 | 35901 ft | 438 kts | 290° |
| 2026-05-06 16:48 | 51.61530 | 4.14416 | 35893 ft | 438 kts | 290° |
| 2026-05-06 16:49 | 51.63745 | 4.05369 | 35899 ft | 438 kts | 290° |
| 2026-05-06 16:49 | 51.65974 | 3.96243 | 35900 ft | 438 kts | 290° |
| 2026-05-06 16:50 | 51.68194 | 3.87113 | 35896 ft | 438 kts | 290° |
| 2026-05-06 16:50 | 51.70411 | 3.77988 | 35924 ft | 436 kts | 290° |
| 2026-05-06 16:51 | 51.72615 | 3.68873 | 35919 ft | 436 kts | 289° |
| 2026-05-06 16:51 | 51.74804 | 3.59762 | 35927 ft | 435 kts | 290° |
| 2026-05-06 16:52 | 51.76986 | 3.50655 | 35939 ft | 434 kts | 289° |
| 2026-05-06 16:52 | 51.79156 | 3.41561 | 35947 ft | 433 kts | 289° |
| 2026-05-06 16:53 | 51.81308 | 3.32495 | 35943 ft | 432 kts | 289° |
| 2026-05-06 16:53 | 51.83450 | 3.23414 | 35943 ft | 432 kts | 288° |
| 2026-05-06 16:54 | 51.84560 | 3.13944 | 35936 ft | 429 kts | 270° |
| 2026-05-06 16:54 | 51.84099 | 3.04421 | 35944 ft | 427 kts | 263° |
| 2026-05-06 16:55 | 51.83474 | 2.94850 | 35943 ft | 427 kts | 263° |
| 2026-05-06 16:55 | 51.82843 | 2.85296 | 35940 ft | 427 kts | 263° |
| 2026-05-06 16:56 | 51.82201 | 2.75725 | 35930 ft | 428 kts | 263° |
| 2026-05-06 16:56 | 51.81548 | 2.66155 | 35940 ft | 428 kts | 263° |
| 2026-05-06 16:57 | 51.80892 | 2.56589 | 35937 ft | 428 kts | 263° |
| 2026-05-06 16:57 | 51.80560 | 2.51796 | 35771 ft | 428 kts | 263° |
| 2026-05-06 16:57 | 51.80224 | 2.47014 | 35522 ft | 428 kts | 263° |
| 2026-05-06 16:57 | 51.79889 | 2.42292 | 35284 ft | 429 kts | 263° |
| 2026-05-06 16:58 | 51.79550 | 2.37515 | 34936 ft | 429 kts | 263° |
| 2026-05-06 16:58 | 51.79208 | 2.32697 | 34138 ft | 434 kts | 264° |
| 2026-05-06 16:58 | 51.78860 | 2.27826 | 33181 ft | 439 kts | 263° |
| 2026-05-06 16:58 | 51.78506 | 2.22908 | 32301 ft | 442 kts | 263° |
| 2026-05-06 16:59 | 51.78166 | 2.17974 | 31486 ft | 442 kts | 264° |
| 2026-05-06 16:59 | 51.77866 | 2.13066 | 31039 ft | 435 kts | 264° |
| 2026-05-06 16:59 | 51.77595 | 2.08226 | 30474 ft | 430 kts | 264° |
| 2026-05-06 16:59 | 51.77334 | 2.03439 | 29905 ft | 426 kts | 264° |
| 2026-05-06 17:00 | 51.77069 | 1.98701 | 29304 ft | 421 kts | 264° |
| 2026-05-06 17:00 | 51.76799 | 1.94019 | 28765 ft | 415 kts | 264° |
| 2026-05-06 17:00 | 51.76525 | 1.89404 | 28230 ft | 410 kts | 264° |
| 2026-05-06 17:00 | 51.76245 | 1.84855 | 27695 ft | 405 kts | 264° |
| 2026-05-06 17:01 | 51.75963 | 1.80362 | 27171 ft | 400 kts | 264° |
| 2026-05-06 17:01 | 51.75682 | 1.75914 | 26644 ft | 396 kts | 264° |
| 2026-05-06 17:01 | 51.75407 | 1.71518 | 26139 ft | 392 kts | 264° |
| 2026-05-06 17:01 | 51.75132 | 1.67166 | 25637 ft | 388 kts | 264° |
| 2026-05-06 17:02 | 51.74861 | 1.62846 | 25150 ft | 385 kts | 264° |
| 2026-05-06 17:02 | 51.74592 | 1.58549 | 24623 ft | 384 kts | 264° |
| 2026-05-06 17:02 | 51.74322 | 1.54261 | 24035 ft | 384 kts | 264° |
| 2026-05-06 17:02 | 51.74054 | 1.50033 | 23454 ft | 384 kts | 264° |
| 2026-05-06 17:03 | 51.73777 | 1.45696 | 22820 ft | 383 kts | 264° |
| 2026-05-06 17:03 | 51.73501 | 1.41437 | 22256 ft | 380 kts | 264° |
| 2026-05-06 17:03 | 51.73228 | 1.37260 | 21689 ft | 378 kts | 264° |
| 2026-05-06 17:03 | 51.72949 | 1.33052 | 21125 ft | 376 kts | 264° |
| 2026-05-06 17:04 | 51.72672 | 1.28861 | 20563 ft | 374 kts | 264° |
| 2026-05-06 17:04 | 51.72396 | 1.24701 | 20003 ft | 372 kts | 264° |
| 2026-05-06 17:04 | 51.72122 | 1.20571 | 19449 ft | 369 kts | 264° |
| 2026-05-06 17:04 | 51.71849 | 1.16470 | 18898 ft | 367 kts | 264° |
| 2026-05-06 17:05 | 51.71578 | 1.12398 | 18351 ft | 364 kts | 264° |
| 2026-05-06 17:05 | 51.71303 | 1.08344 | 17753 ft | 362 kts | 264° |
| 2026-05-06 17:05 | 51.71029 | 1.04343 | 17215 ft | 357 kts | 264° |
| 2026-05-06 17:05 | 51.70758 | 1.00397 | 16684 ft | 352 kts | 264° |
| 2026-05-06 17:06 | 51.70488 | 0.96493 | 16161 ft | 348 kts | 264° |
| 2026-05-06 17:06 | 51.70221 | 0.92649 | 15715 ft | 343 kts | 264° |
| 2026-05-06 17:06 | 51.69957 | 0.88863 | 15337 ft | 338 kts | 264° |
| 2026-05-06 17:06 | 51.69693 | 0.85121 | 14944 ft | 335 kts | 264° |
| 2026-05-06 17:07 | 51.69434 | 0.81397 | 14549 ft | 333 kts | 264° |
| 2026-05-06 17:07 | 51.69178 | 0.77704 | 14162 ft | 331 kts | 264° |
| 2026-05-06 17:07 | 51.68919 | 0.74028 | 13768 ft | 329 kts | 264° |
| 2026-05-06 17:07 | 51.68659 | 0.70370 | 13362 ft | 327 kts | 264° |
| 2026-05-06 17:08 | 51.68401 | 0.66730 | 12970 ft | 326 kts | 264° |
| 2026-05-06 17:08 | 51.68142 | 0.63113 | 12585 ft | 324 kts | 264° |
| 2026-05-06 17:08 | 51.67883 | 0.59522 | 12251 ft | 319 kts | 264° |
| 2026-05-06 17:08 | 51.67630 | 0.56042 | 12122 ft | 306 kts | 264° |
| 2026-05-06 17:09 | 51.67389 | 0.52701 | 11979 ft | 294 kts | 265° |
| 2026-05-06 17:09 | 51.67157 | 0.49460 | 11717 ft | 288 kts | 265° |
| 2026-05-06 17:09 | 51.66925 | 0.46270 | 11457 ft | 286 kts | 265° |
| 2026-05-06 17:09 | 51.66694 | 0.43089 | 11207 ft | 284 kts | 265° |
| 2026-05-06 17:10 | 51.66463 | 0.39916 | 10973 ft | 286 kts | 265° |
| 2026-05-06 17:10 | 51.66230 | 0.36754 | 10653 ft | 284 kts | 265° |
| 2026-05-06 17:10 | 51.65998 | 0.33608 | 10322 ft | 282 kts | 265° |
| 2026-05-06 17:10 | 51.65763 | 0.30472 | 9992 ft | 281 kts | 265° |
| 2026-05-06 17:11 | 51.65527 | 0.27353 | 9642 ft | 279 kts | 265° |
| 2026-05-06 17:11 | 51.65291 | 0.24258 | 9312 ft | 278 kts | 264° |
| 2026-05-06 17:11 | 51.65056 | 0.21202 | 9131 ft | 270 kts | 264° |
| 2026-05-06 17:11 | 51.64830 | 0.18248 | 9000 ft | 262 kts | 264° |
| 2026-05-06 17:12 | 51.64612 | 0.15382 | 8867 ft | 254 kts | 264° |
| 2026-05-06 17:12 | 51.64426 | 0.12589 | 8688 ft | 248 kts | 266° |
| 2026-05-06 17:12 | 51.64277 | 0.09834 | 8555 ft | 245 kts | 266° |
| 2026-05-06 17:12 | 51.64137 | 0.07098 | 8425 ft | 245 kts | 266° |
| 2026-05-06 17:13 | 51.63997 | 0.04368 | 8290 ft | 244 kts | 266° |
| 2026-05-06 17:13 | 51.63853 | 0.01647 | 8165 ft | 244 kts | 266° |
| 2026-05-06 17:13 | 51.63705 | -0.01046 | 8075 ft | 245 kts | 266° |
| 2026-05-06 17:13 | 51.63552 | -0.03765 | 7948 ft | 242 kts | 267° |
| 2026-05-06 17:14 | 51.63400 | -0.06458 | 7823 ft | 242 kts | 267° |
| 2026-05-06 17:14 | 51.63249 | -0.09147 | 7696 ft | 241 kts | 266° |
| 2026-05-06 17:14 | 51.63098 | -0.11841 | 7579 ft | 242 kts | 266° |
| 2026-05-06 17:14 | 51.62947 | -0.14541 | 7451 ft | 241 kts | 267° |
| 2026-05-06 17:15 | 51.62796 | -0.17219 | 7324 ft | 240 kts | 266° |
| 2026-05-06 17:15 | 51.62643 | -0.19903 | 7200 ft | 240 kts | 267° |
| 2026-05-06 17:15 | 51.62490 | -0.22569 | 7076 ft | 239 kts | 267° |
| 2026-05-06 17:15 | 51.62334 | -0.25235 | 6951 ft | 239 kts | 266° |
| 2026-05-06 17:16 | 51.62179 | -0.27886 | 7028 ft | 239 kts | 266° |
| 2026-05-06 17:16 | 51.62024 | -0.30553 | 7055 ft | 240 kts | 267° |
| 2026-05-06 17:16 | 51.61868 | -0.33229 | 7007 ft | 240 kts | 266° |
| 2026-05-06 17:16 | 51.61712 | -0.35900 | 7009 ft | 240 kts | 266° |
| 2026-05-06 17:17 | 51.61554 | -0.38576 | 7011 ft | 240 kts | 266° |
| 2026-05-06 17:17 | 51.61395 | -0.41251 | 7010 ft | 240 kts | 267° |
| 2026-05-06 17:17 | 51.61237 | -0.43918 | 7012 ft | 240 kts | 266° |
| 2026-05-06 17:17 | 51.61077 | -0.46601 | 7007 ft | 240 kts | 266° |
| 2026-05-06 17:18 | 51.60917 | -0.49268 | 7009 ft | 240 kts | 267° |
| 2026-05-06 17:18 | 51.60757 | -0.51933 | 7014 ft | 240 kts | 266° |
| 2026-05-06 17:18 | 51.60595 | -0.54607 | 7003 ft | 240 kts | 266° |
| 2026-05-06 17:18 | 51.60432 | -0.57277 | 7009 ft | 240 kts | 266° |
| 2026-05-06 17:19 | 51.60270 | -0.59944 | 7008 ft | 240 kts | 266° |
| 2026-05-06 17:19 | 51.60109 | -0.62581 | 7008 ft | 240 kts | 265° |
| 2026-05-06 17:19 | 51.59941 | -0.65295 | 6999 ft | 240 kts | 266° |
| 2026-05-06 17:19 | 51.59777 | -0.67939 | 6710 ft | 241 kts | 266° |
| 2026-05-06 17:20 | 51.59613 | -0.70650 | 6450 ft | 240 kts | 266° |
| 2026-05-06 17:20 | 51.59454 | -0.73267 | 6173 ft | 236 kts | 266° |
| 2026-05-06 17:20 | 51.59266 | -0.75871 | 5929 ft | 232 kts | 259° |
| 2026-05-06 17:20 | 51.58535 | -0.78151 | 5587 ft | 233 kts | 227° |
| 2026-05-06 17:21 | 51.57161 | -0.79482 | 5253 ft | 233 kts | 195° |
| 2026-05-06 17:21 | 51.55557 | -0.79614 | 4924 ft | 230 kts | 178° |
| 2026-05-06 17:21 | 51.53968 | -0.79518 | 4575 ft | 225 kts | 178° |
| 2026-05-06 17:21 | 51.52435 | -0.79433 | 4281 ft | 216 kts | 178° |
| 2026-05-06 17:22 | 51.50937 | -0.79339 | 3963 ft | 215 kts | 175° |
| 2026-05-06 17:22 | 51.49529 | -0.78660 | 3723 ft | 209 kts | 148° |
| 2026-05-06 17:22 | 51.48447 | -0.77216 | 3581 ft | 198 kts | 126° |
| 2026-05-06 17:22 | 51.47797 | -0.75315 | 3404 ft | 193 kts | 104° |
| 2026-05-06 17:23 | 51.47619 | -0.73218 | 3185 ft | 189 kts | 85° |
| 2026-05-06 17:23 | 51.47634 | -0.71115 | 2931 ft | 188 kts | 86° |
| 2026-05-06 17:23 | 51.47647 | -0.69025 | 2675 ft | 187 kts | 86° |
| 2026-05-06 17:23 | 51.47659 | -0.66950 | 2422 ft | 186 kts | 85° |
| 2026-05-06 17:24 | 51.47671 | -0.64879 | 2165 ft | 185 kts | 86° |
| 2026-05-06 17:24 | 51.47678 | -0.63520 | 2016 ft | 183 kts | 85° |
| 2026-05-06 17:24 | 51.47688 | -0.61504 | 1758 ft | 179 kts | 86° |
| 2026-05-06 17:24 | 51.47697 | -0.59564 | 1499 ft | 167 kts | 85° |
| 2026-05-06 17:25 | 51.47705 | -0.57783 | 1287 ft | 153 kts | 85° |
| 2026-05-06 17:25 | 51.47713 | -0.56135 | 1093 ft | 143 kts | 85° |
| 2026-05-06 17:25 | 51.47722 | -0.54567 | 880 ft | 139 kts | 85° |
| 2026-05-06 17:25 | 51.47720 | -0.53025 | 698 ft | 138 kts | 86° |
| 2026-05-06 17:26 | 51.47726 | -0.51498 | 497 ft | 137 kts | 84° |
| 2026-05-06 17:26 | 51.47736 | -0.49975 | 301 ft | 136 kts | 85° |
| 2026-05-06 17:26 | 51.47749 | -0.48456 | 128 ft | 136 kts | 85° |
| 2026-05-06 17:26 | 51.47757 | -0.47035 | 89 ft | 117 kts | 90° |
| 2026-05-06 17:27 | 51.47759 | -0.45999 | 85 ft | 68 kts | 90° |
| 2026-05-06 17:27 | 51.47752 | -0.45522 | 86 ft | 28 kts | 114° |
| 2026-05-06 17:27 | 51.47626 | -0.45469 | 86 ft | 17 kts | 186° |
| 2026-05-06 17:27 | 51.47596 | -0.45638 | 86 ft | 18 kts | 269° |
| 2026-05-06 17:28 | 51.47596 | -0.45856 | 88 ft | 21 kts | 270° |
| 2026-05-06 17:28 | 51.47595 | -0.46106 | 90 ft | 23 kts | 270° |
| 2026-05-06 17:28 | 51.47593 | -0.46345 | 86 ft | 22 kts | 269° |
| 2026-05-06 17:28 | 51.47593 | -0.46576 | 86 ft | 21 kts | 268° |
| 2026-05-06 17:29 | 51.47589 | -0.46821 | 86 ft | 23 kts | 263° |
| 2026-05-06 17:29 | 51.47583 | -0.47089 | 86 ft | 25 kts | 270° |
| 2026-05-06 17:29 | 51.47582 | -0.47379 | 88 ft | 23 kts | 269° |
| 2026-05-06 17:29 | 51.47581 | -0.47648 | 88 ft | 24 kts | 270° |
| 2026-05-06 17:30 | 51.47580 | -0.47889 | 88 ft | 22 kts | 270° |
| 2026-05-06 17:30 | 51.47579 | -0.48138 | 88 ft | 20 kts | 269° |
| 2026-05-06 17:30 | 51.47578 | -0.48359 | 87 ft | 20 kts | 270° |
| 2026-05-06 17:30 | 51.47503 | -0.48476 | 86 ft | 19 kts | 179° |
| 2026-05-06 17:31 | 51.47359 | -0.48474 | 86 ft | 22 kts | 179° |
| 2026-05-06 17:31 | 51.47201 | -0.48473 | 86 ft | 23 kts | 180° |
| 2026-05-06 17:31 | 51.47050 | -0.48471 | 87 ft | 22 kts | 179° |
| 2026-05-06 17:31 | 51.46917 | -0.48468 | 86 ft | 13 kts | 179° |
| 2026-05-06 17:32 | 51.46877 | -0.48579 | 86 ft | 14 kts | 270° |
| 2026-05-06 17:32 | 51.46905 | -0.48647 | 86 ft | 6 kts | 357° |
| 2026-05-06 17:32 | 51.46927 | -0.48647 | 88 ft | 1 kts | 359° |
| 2026-05-06 17:32 | 51.46933 | -0.48647 | 89 ft | 0 kts | 359° |